Newton, North Carolina
Current Conditions -  °F | °C
As of 10:53 AM on Wednesday 22 Oct 2014 (Local Time) from KHKY Reporting Station
Clear Clear  
Wind Chill: 55°   Ceiling: Unl
Heat Index: 55°   Visibility: 10mi
Dew Point: 36°   Wind: 12mph
Humidity: 49%   Direction: 360°N
Pressure: 30.1"   Gusts: 20mph
Location:  35.67°N, 81.22°W
Report Text: KHKY 221453Z 36010G17KT 10SM CLR 13/02 A3010 RMK AO2 SLP182 T01280022 51017
Loading
Personal Weather Stations






























Interactive Weather Map
Tropical Storm Tracking
New forecast layout! Learn more

10-Day Weather Forecast

Advertisements
Track Severe Weather on mobile